Concepcion, Chile

4:42 AM CLST on October 24, 2014 (GMT -0300)
Carriel Sur International | Change Station
CLOSE
Current Station
Airport
Location: Concepcion,
Elevation: 52 ft
Nearby Weather Stations

Elev 52 ft 36.78 °S, 73.06 °W | Updated 42 minutes ago

Clear
Clear
52 °F
Feels Like 52 °F
N
2
Wind Variable Wind from SSE

Today
High -- | Low -- °F
--% Chance of Precip.
Yesterday
High -- | Low -- °F
Precip. -- in
6:56 AM 8:17 PM
New Moon, 0% visible
Pressure 30.06 in
Visibility -9999.0 miles
Clouds
Dew Point 50 °F
Humidity 94%
Rainfall 0.00 in
Snow Depth Not available.
UV Not available.
Pollen Not available.
Air Quality Not available.
Flu Activity Not available.
METAR SCIE 240700Z 15002KT CAVOK 11/10 Q1018

More Conditions Fewer Conditions

Pressure 30.06 in
Visibility -9999.0 miles
Clouds
Dew Point 50 °F
Humidity 94%
Rainfall 0.00 in
Snow Depth Not available.
UV Not available.
Pollen Not available.
Air Quality Not available.
Flu Activity Not available.
METAR SCIE 240700Z 15002KT CAVOK 11/10 Q1018

More Conditions Fewer Conditions

10-Day Weather Forecast

Almanac

Astronomy

Oct. 24, 2014 Rise Set
Actual Time 6:56 AM CLST 8:17 PM CLST
Civil Twilight 6:29 AM CLST 8:44 PM CLST
Nautical Twilight 5:56 AM CLST 9:16 PM CLST
Astronomical Twilight 5:23 AM CLST 9:50 PM CLST
Moon 7:25 AM CLST 9:12 PM CLST
Length of Visible Light 14h 15m
Length of Day
13h 20m
Tomorrow will be 2m 12s longer.
New Moon, 0% of the Moon is Illuminated
Today
New Moon
Oct 30
First Quarter
Nov 6
Full
Nov 14
Last Quarter
Nov 22
New

Yesterday's Extremes

Country Highs Country Lows

Community

WunderPhotos

Upload Photos

1,764,512 photos uploaded!

WunderBlogs® & News

Nearby

Snow Depth

Not available.

Earthquake Activity

City Distance Mag. Time & Date
No recent earthquake activity has been reported nearby.
Minimum magnitude displayed is 2.5.

Coastal Water Temperatures

Place Temperature
No Stations Reporting

Nearby Weather Stations